This is the latest recevied weather packets stored in our database for station/object SQ3RAX-13. If no packets are shown the sender has not sent any weather packets the latest 10 day(s).
| Time | Temp. | Humidity | Pressure | Rain* | Wind** | Luminosity | Snow |
|---|---|---|---|---|---|---|---|
| 1777667100 | 13.89° C | 54% | 1026 hPa | 0 mm | - | - | - |
| 1777666500 | 13.89° C | 54% | 1026 hPa | 0 mm | - | - | - |
| 1777665900 | 13.89° C | 56% | 1026 hPa | 0 mm | - | - | - |
| 1777665300 | 14.44° C | 55% | 1026 hPa | 0 mm | - | - | - |
| 1777664700 | 14.44° C | 55% | 1026 hPa | 0 mm | - | - | - |
| 1777664100 | 15° C | 54% | 1026 hPa | 0 mm | - | - | - |
| 1777663500 | 15.56° C | 47% | 1026 hPa | 0 mm | - | - | - |
| 1777662900 | 16.67° C | 50% | 1026 hPa | 0 mm | - | - | - |
| 1777662300 | 16.67° C | 50% | 1026 hPa | 0 mm | - | - | - |
| 1777661700 | 16.67° C | 50% | 1026 hPa | 0 mm | - | - | - |
| 1777661100 | 16.67° C | 50% | 1026 hPa | 0 mm | - | - | - |
| 1777660500 | 16.67° C | 49% | 1026 hPa | 0 mm | - | - | - |
| 1777659900 | 18.89° C | 34% | 1025 hPa | 0 mm | - | - | - |
| 1777659300 | 18.89° C | 34% | 1025 hPa | 0 mm | - | - | - |
| 1777658700 | 18.33° C | 47% | 1025 hPa | 0 mm | - | - | - |
| 1777658100 | 18.89° C | 45% | 1025 hPa | 0 mm | - | - | - |
| 1777657500 | 18.89° C | 45% | 1025 hPa | 0 mm | - | - | - |
| 1777656900 | 18.89° C | 45% | 1025 hPa | 0 mm | - | - | - |
| 1777656300 | 21.11° C | 34% | 1025 hPa | 0 mm | - | - | - |
| 1777655700 | 21.11° C | 34% | 1025 hPa | 0 mm | - | - | - |
| 1777655100 | 20.56° C | 43% | 1025 hPa | 0 mm | - | - | - |
| 1777654500 | 20.56° C | 42% | 1025 hPa | 0 mm | - | - | - |
| 1777653900 | 20.56° C | 42% | 1025 hPa | 0 mm | - | - | - |
| 1777653300 | 21.67° C | 27% | 1025 hPa | 0 mm | - | - | - |
| 1777652700 | 21.67° C | 27% | 1025 hPa | 0 mm | - | - | - |
* Rain latest hour (hover to see other rain measurements)
** Current wind speed in m/s (hover to see current wind gust speed)